createdAt,value
2023-05-13T00:02:09.688Z,100961.19
2023-05-13T00:04:56.465Z,100885.31
2023-05-13T00:07:42.616Z,100943.09
2023-05-13T00:10:28.700Z,100965.69
2023-05-13T00:13:14.236Z,100950.28
2023-05-13T00:16:00.597Z,100946.19
2023-05-13T00:18:46.542Z,100961.75
2023-05-13T00:21:33.848Z,100947.88
2023-05-13T00:24:20.484Z,100971.31
2023-05-13T00:27:06.657Z,100965.25
2023-05-13T00:29:53.012Z,100943.75
2023-05-13T00:32:39.296Z,100964.50
2023-05-13T00:35:27.502Z,100981.47
2023-05-13T00:38:13.865Z,100952.66
2023-05-13T00:41:00.295Z,100937.94
2023-05-13T00:43:46.918Z,100942.59
2023-05-13T00:46:33.512Z,100981.31
2023-05-13T00:49:19.291Z,100938.50
2023-05-13T00:52:05.703Z,100970.91
2023-05-13T00:54:51.862Z,100955.34
2023-05-13T00:57:38.487Z,100931.41
2023-05-13T01:00:25.218Z,100966.41
2023-05-13T01:03:14.453Z,100955.53
2023-05-13T01:06:28.176Z,100953.97
2023-05-13T01:09:55.385Z,100963.28
2023-05-13T01:12:43.951Z,100968.25
2023-05-13T01:15:30.180Z,100963.97
2023-05-13T01:18:20.878Z,100905.44
2023-05-13T01:21:08.404Z,100958.56
2023-05-13T01:23:55.758Z,100982.56
2023-05-13T01:26:41.618Z,100979.88
2023-05-13T01:29:28.147Z,100973.97
2023-05-13T01:32:14.881Z,100983.78
2023-05-13T01:35:01.432Z,100956.03
2023-05-13T01:37:50.289Z,100986.03
2023-05-13T01:40:38.413Z,100990.91
2023-05-13T01:43:26.408Z,100969.66
2023-05-13T01:46:13.618Z,100983.53
2023-05-13T01:48:59.537Z,100984.88
2023-05-13T01:51:46.100Z,100950.00
2023-05-13T01:54:32.420Z,100992.34
2023-05-13T01:57:24.053Z,100949.91
2023-05-13T02:00:10.742Z,100947.91
2023-05-13T02:03:00.379Z,100997.03
2023-05-13T02:05:47.701Z,100981.16
2023-05-13T02:08:34.112Z,100969.84
2023-05-13T02:11:20.082Z,100988.69
2023-05-13T02:14:06.227Z,100946.16
2023-05-13T02:16:54.189Z,100962.38
2023-05-13T02:19:41.410Z,100983.97
2023-05-13T02:22:28.178Z,100969.56
2023-05-13T02:25:14.495Z,100997.47
2023-05-13T02:28:00.628Z,100989.78
2023-05-13T02:30:47.282Z,101004.88
2023-05-13T02:33:33.653Z,100979.28
2023-05-13T02:36:19.975Z,100990.47
2023-05-13T02:39:07.153Z,100991.78
2023-05-13T02:41:54.198Z,100983.84
2023-05-13T02:44:41.130Z,100994.22
2023-05-13T02:47:29.517Z,100989.66
2023-05-13T02:50:20.441Z,100985.31
2023-05-13T02:53:07.365Z,100999.63
2023-05-13T02:55:56.038Z,100959.91
2023-05-13T02:58:44.961Z,100996.31
2023-05-13T03:01:31.445Z,100965.84
2023-05-13T03:04:17.875Z,101000.50
2023-05-13T03:07:03.586Z,101004.38
2023-05-13T03:09:50.096Z,100985.00
2023-05-13T03:12:36.281Z,100990.44
2023-05-13T03:15:22.516Z,101008.06
2023-05-13T03:18:09.083Z,100990.63
2023-05-13T03:20:55.547Z,100993.56
2023-05-13T03:23:42.659Z,101001.22
2023-05-13T03:26:29.412Z,100970.06
2023-05-13T03:29:16.058Z,101004.69
2023-05-13T03:32:06.554Z,100952.56
2023-05-13T03:34:53.696Z,100982.22
2023-05-13T03:37:40.060Z,101017.19
2023-05-13T03:40:27.549Z,101002.56
2023-05-13T03:43:14.164Z,100993.25
2023-05-13T03:46:04.816Z,101024.13
2023-05-13T03:48:51.122Z,101011.06
2023-05-13T03:51:37.347Z,101001.13
2023-05-13T03:54:24.953Z,101022.72
2023-05-13T03:57:10.622Z,101031.19
2023-05-13T03:59:57.067Z,101031.38
2023-05-13T04:02:43.496Z,101000.03
2023-05-13T04:05:31.194Z,101023.88
2023-05-13T04:08:17.434Z,101038.47
2023-05-13T04:11:04.053Z,101037.44
2023-05-13T04:13:50.195Z,101017.97
2023-05-13T04:16:36.124Z,101026.56
2023-05-13T04:19:22.034Z,101033.16
2023-05-13T04:22:08.648Z,101020.56
2023-05-13T04:24:56.653Z,101034.72
2023-05-13T04:27:43.156Z,101028.63
2023-05-13T04:30:36.324Z,101031.16
2023-05-13T04:33:23.215Z,101027.84
2023-05-13T04:36:09.370Z,101008.31
2023-05-13T04:38:55.699Z,101036.66
2023-05-13T04:41:42.202Z,101053.81
2023-05-13T04:44:28.064Z,101062.00
2023-05-13T04:47:13.916Z,101043.63
2023-05-13T04:50:00.038Z,101059.19
2023-05-13T04:52:47.669Z,101053.75
2023-05-13T04:55:39.033Z,101053.50
2023-05-13T04:58:25.310Z,101063.66
2023-05-13T05:01:11.895Z,101045.91
2023-05-13T05:03:58.453Z,101054.38
2023-05-13T05:06:45.001Z,101035.56
2023-05-13T05:09:31.167Z,101062.44
2023-05-13T05:12:19.134Z,101049.44
2023-05-13T05:15:06.235Z,101056.25
2023-05-13T05:17:52.747Z,101052.53
2023-05-13T05:20:38.939Z,101054.34
2023-05-13T05:23:28.798Z,101067.34
2023-05-13T05:26:15.360Z,101061.00
2023-05-13T05:29:02.247Z,101059.25
2023-05-13T05:31:49.171Z,101045.25
2023-05-13T05:34:35.395Z,101062.78
2023-05-13T05:37:21.453Z,101034.63
2023-05-13T05:40:08.505Z,101068.09
2023-05-13T05:42:58.546Z,101057.16
2023-05-13T05:45:46.258Z,101071.78
2023-05-13T05:48:36.858Z,101065.44
2023-05-13T05:51:23.781Z,101070.50
2023-05-13T05:54:10.040Z,101067.13
2023-05-13T05:56:57.268Z,101074.34
2023-05-13T05:59:43.309Z,101044.91
2023-05-13T06:02:29.915Z,101064.63
2023-05-13T06:05:16.594Z,101069.13
2023-05-13T06:08:03.925Z,101063.56
2023-05-13T06:10:50.083Z,101077.47
2023-05-13T06:13:36.608Z,101060.28
2023-05-13T06:16:23.495Z,101071.03
2023-05-13T06:19:11.355Z,101065.44
2023-05-13T06:21:57.605Z,101071.31
2023-05-13T06:24:44.918Z,101067.81
2023-05-13T06:27:34.180Z,101061.94
2023-05-13T06:30:21.801Z,101067.59
2023-05-13T06:33:10.564Z,101057.44
2023-05-13T06:35:56.907Z,101070.88
2023-05-13T06:38:44.003Z,101069.41
2023-05-13T06:41:30.347Z,101082.53
2023-05-13T06:44:22.270Z,101067.41
2023-05-13T06:47:10.481Z,101047.28
2023-05-13T06:49:57.408Z,101068.88
2023-05-13T06:52:43.643Z,101069.56
2023-05-13T06:55:29.850Z,101070.78
2023-05-13T06:58:15.808Z,101075.16
2023-05-13T07:01:02.322Z,101089.97
2023-05-13T07:03:49.109Z,101077.22
2023-05-13T07:06:35.504Z,101054.38
2023-05-13T07:09:21.800Z,101055.03
2023-05-13T07:12:07.587Z,101057.69
2023-05-13T07:14:54.512Z,101046.31
2023-05-13T07:17:41.156Z,101081.03
2023-05-13T07:20:27.785Z,101060.91
2023-05-13T07:23:14.462Z,101083.81
2023-05-13T07:26:01.064Z,101037.53
2023-05-13T07:28:46.711Z,101065.84
2023-05-13T07:31:33.558Z,101065.94
2023-05-13T07:34:19.840Z,101075.81
2023-05-13T07:37:06.048Z,101048.97
2023-05-13T07:39:53.615Z,101061.22
2023-05-13T07:42:40.664Z,101070.81
2023-05-13T07:45:26.870Z,101068.75
2023-05-13T07:48:13.203Z,101060.50
2023-05-13T07:50:59.899Z,101031.81
2023-05-13T07:53:47.234Z,101059.94
2023-05-13T07:56:33.739Z,101058.69
2023-05-13T07:59:20.819Z,101062.91
2023-05-13T08:02:07.966Z,101036.59
2023-05-13T08:04:54.465Z,101065.41
2023-05-13T08:07:40.564Z,101058.16
2023-05-13T08:10:27.421Z,101065.78
2023-05-13T08:13:13.668Z,101070.91
2023-05-13T08:16:03.612Z,101064.63
2023-05-13T08:18:49.722Z,101027.66
2023-05-13T08:21:37.225Z,101060.53
2023-05-13T08:24:22.833Z,101056.25
2023-05-13T08:27:09.494Z,101046.56
2023-05-13T08:29:55.103Z,101059.38
2023-05-13T08:32:41.492Z,101071.53
2023-05-13T08:35:27.644Z,101058.59
2023-05-13T08:38:13.961Z,101057.56
2023-05-13T08:41:00.264Z,101069.31
2023-05-13T08:43:47.423Z,101063.53
2023-05-13T08:46:35.199Z,101062.56
2023-05-13T08:49:21.818Z,101052.69
2023-05-13T08:52:08.134Z,101065.97
2023-05-13T08:54:54.826Z,101054.38
2023-05-13T08:57:40.789Z,101027.66
2023-05-13T09:00:27.305Z,101048.44
2023-05-13T09:03:14.019Z,101060.72
2023-05-13T09:06:01.925Z,101055.81
2023-05-13T09:08:48.806Z,101059.75
2023-05-13T09:11:35.194Z,101057.53
2023-05-13T09:14:21.152Z,101063.81
2023-05-13T09:17:07.990Z,101026.84
2023-05-13T09:19:54.174Z,101019.03
2023-05-13T09:22:51.806Z,101008.72
2023-05-13T09:25:38.989Z,101042.03
2023-05-13T09:28:26.410Z,101049.84
2023-05-13T09:31:12.820Z,101052.31
2023-05-13T09:33:59.269Z,101039.66
2023-05-13T09:36:45.597Z,101037.81
2023-05-13T09:39:39.793Z,101049.06
2023-05-13T09:42:25.432Z,101035.59
2023-05-13T09:45:16.409Z,101028.13
2023-05-13T09:48:02.928Z,101038.34
2023-05-13T09:50:50.594Z,101038.34
2023-05-13T09:53:36.783Z,101027.22
2023-05-13T09:56:24.154Z,101021.91
2023-05-13T09:59:10.320Z,100996.41
2023-05-13T10:02:00.292Z,101023.19
2023-05-13T10:04:46.792Z,101015.34
2023-05-13T10:07:34.877Z,101018.34
2023-05-13T10:10:22.117Z,100991.63
2023-05-13T10:13:11.069Z,101009.63
2023-05-13T10:15:57.799Z,100987.78
2023-05-13T10:18:44.418Z,101016.63
2023-05-13T10:21:31.342Z,100971.88
2023-05-13T10:24:17.793Z,100966.13
2023-05-13T10:27:04.978Z,101006.38
2023-05-13T10:29:52.563Z,100965.13
2023-05-13T10:32:40.153Z,100967.09
2023-05-13T10:35:31.012Z,101003.66
2023-05-13T10:38:28.715Z,100996.25
2023-05-13T10:41:40.196Z,100972.69
2023-05-13T10:44:26.358Z,101001.03
2023-05-13T10:47:13.906Z,100989.38
2023-05-13T10:50:05.187Z,100981.28
2023-05-13T10:52:56.566Z,100991.09
2023-05-13T10:55:46.153Z,100982.47
2023-05-13T10:58:33.973Z,100990.88
2023-05-13T11:01:28.971Z,100987.63
2023-05-13T11:04:18.490Z,100971.97
2023-05-13T11:07:15.400Z,100978.00
2023-05-13T11:10:02.026Z,100987.41
2023-05-13T11:13:16.260Z,100979.66
2023-05-13T11:16:06.517Z,100978.47
2023-05-13T11:18:53.551Z,100969.88
2023-05-13T11:21:39.916Z,100984.34
2023-05-13T11:24:26.637Z,100964.72
2023-05-13T11:27:20.311Z,100963.31
2023-05-13T11:30:23.826Z,100988.75
2023-05-13T11:33:12.538Z,100954.16
2023-05-13T11:35:59.167Z,100986.72
2023-05-13T11:38:46.149Z,100978.28
2023-05-13T11:41:34.156Z,100974.09
2023-05-13T11:44:22.408Z,100973.94
2023-05-13T11:47:09.241Z,100981.56
2023-05-13T11:49:55.960Z,100977.16
2023-05-13T11:52:42.219Z,100994.66
2023-05-13T11:55:31.333Z,100993.25
2023-05-13T11:58:17.926Z,100982.56
2023-05-13T12:01:03.762Z,100994.31
2023-05-13T12:03:50.102Z,100988.06
2023-05-13T12:06:44.310Z,100991.66
2023-05-13T12:09:30.687Z,100990.59
2023-05-13T12:12:17.716Z,100965.13
2023-05-13T12:15:06.658Z,100998.22
2023-05-13T12:17:53.509Z,100984.97
2023-05-13T12:20:39.547Z,100992.00
2023-05-13T12:23:25.823Z,100991.81
2023-05-13T12:26:12.291Z,100984.25
2023-05-13T12:29:01.385Z,100979.94
2023-05-13T12:32:04.781Z,100985.88
2023-05-13T12:34:51.633Z,100976.34
2023-05-13T12:37:37.826Z,100979.69
2023-05-13T12:40:27.157Z,100988.66
2023-05-13T12:43:13.470Z,100978.19
2023-05-13T12:46:00.145Z,100984.97
2023-05-13T12:48:46.105Z,100975.09
2023-05-13T12:51:35.904Z,100982.91
2023-05-13T12:54:22.029Z,100981.84
2023-05-13T12:57:11.101Z,100969.91
2023-05-13T12:59:57.249Z,100965.69
2023-05-13T13:02:43.734Z,100963.84
2023-05-13T13:05:29.872Z,100966.81
2023-05-13T13:08:16.201Z,100954.50
2023-05-13T13:11:02.255Z,100976.09
2023-05-13T13:13:50.013Z,100966.75
2023-05-13T13:16:36.170Z,100945.13
2023-05-13T13:19:22.859Z,100956.44
2023-05-13T13:22:09.335Z,100947.25
2023-05-13T13:24:56.038Z,100967.38
2023-05-13T13:27:42.162Z,100945.09
2023-05-13T13:30:29.591Z,100946.34
2023-05-13T13:33:16.563Z,100945.63
2023-05-13T13:36:03.844Z,100950.91
2023-05-13T13:38:50.123Z,100934.84
2023-05-13T13:41:37.379Z,100927.81
2023-05-13T13:44:23.532Z,100948.84
2023-05-13T13:47:10.218Z,100943.63
2023-05-13T13:49:56.351Z,100933.75
2023-05-13T13:52:42.595Z,100942.13
2023-05-13T13:55:29.256Z,100942.13
2023-05-13T13:58:15.883Z,100942.69
2023-05-13T14:01:02.261Z,100949.41
2023-05-13T14:03:50.848Z,100943.13
2023-05-13T14:06:37.162Z,100937.50
2023-05-13T14:09:23.715Z,100940.72
2023-05-13T14:12:10.111Z,100941.25
2023-05-13T14:14:57.624Z,100928.66
2023-05-13T14:17:44.274Z,100919.06
2023-05-13T14:20:30.642Z,100924.06
2023-05-13T14:23:18.414Z,100916.34
2023-05-13T14:26:07.623Z,100921.56
2023-05-13T14:28:54.871Z,100919.84
2023-05-13T14:31:41.350Z,100918.44
2023-05-13T14:34:27.304Z,100919.06
2023-05-13T14:37:13.914Z,100913.84
2023-05-13T14:39:59.879Z,100921.84
2023-05-13T14:42:46.509Z,100913.84
2023-05-13T14:45:33.023Z,100917.63
2023-05-13T14:48:19.752Z,100917.72
2023-05-13T14:51:05.834Z,100910.59
2023-05-13T14:53:51.699Z,100908.94
2023-05-13T14:56:38.045Z,100887.47
2023-05-13T14:59:24.552Z,100915.66
2023-05-13T15:02:10.834Z,100909.66
2023-05-13T15:04:57.487Z,100909.22
2023-05-13T15:07:43.147Z,100900.38
2023-05-13T15:10:29.605Z,100906.88
2023-05-13T15:13:15.914Z,100896.06
2023-05-13T15:16:03.810Z,100897.78
2023-05-13T15:18:50.455Z,100872.03
2023-05-13T15:21:36.778Z,100889.72
2023-05-13T15:24:22.700Z,100902.53
2023-05-13T15:27:08.838Z,100896.44
2023-05-13T15:29:55.190Z,100884.41
2023-05-13T15:32:41.729Z,100895.72
2023-05-13T15:35:27.572Z,100885.56
2023-05-13T15:38:14.151Z,100889.72
2023-05-13T15:41:01.207Z,100879.72
2023-05-13T15:43:49.076Z,100887.81
2023-05-13T15:46:35.745Z,100872.09
2023-05-13T15:49:22.937Z,100875.41
2023-05-13T15:52:09.037Z,100872.63
2023-05-13T15:54:55.085Z,100882.25
2023-05-13T15:57:41.282Z,100871.47
2023-05-13T16:00:27.943Z,100876.59
2023-05-13T16:03:14.666Z,100867.69
2023-05-13T16:06:00.912Z,100870.84
2023-05-13T16:08:46.648Z,100876.75
2023-05-13T16:11:32.815Z,100866.81
2023-05-13T16:14:19.596Z,100849.94
2023-05-13T16:17:05.958Z,100849.88
2023-05-13T16:19:52.560Z,100832.84
2023-05-13T16:22:39.203Z,100856.59
2023-05-13T16:25:25.149Z,100853.72
2023-05-13T16:28:12.160Z,100853.28
2023-05-13T16:30:58.752Z,100823.78
2023-05-13T16:33:46.444Z,100845.13
2023-05-13T16:36:32.620Z,100844.31
2023-05-13T16:39:19.278Z,100839.03
2023-05-13T16:42:06.645Z,100830.06
2023-05-13T16:44:53.022Z,100808.59
2023-05-13T16:47:39.326Z,100838.66
2023-05-13T16:50:28.063Z,100849.25
2023-05-13T16:53:13.889Z,100847.00
2023-05-13T16:56:00.938Z,100842.94
2023-05-13T16:58:47.122Z,100857.44
2023-05-13T17:01:36.840Z,100833.88
2023-05-13T17:04:24.139Z,100853.38
2023-05-13T17:07:10.681Z,100853.72
2023-05-13T17:09:56.837Z,100825.44
2023-05-13T17:12:43.448Z,100837.84
2023-05-13T17:15:29.556Z,100843.94
2023-05-13T17:18:15.965Z,100839.69
2023-05-13T17:21:04.640Z,100835.13
2023-05-13T17:23:51.024Z,100841.38
2023-05-13T17:26:38.888Z,100850.09
2023-05-13T17:29:25.951Z,100830.16
2023-05-13T17:32:12.131Z,100828.34
2023-05-13T17:34:59.311Z,100849.09
2023-05-13T17:37:45.407Z,100853.63
2023-05-13T17:40:31.312Z,100843.72
2023-05-13T17:43:17.401Z,100852.53
2023-05-13T17:46:03.901Z,100853.94
2023-05-13T17:48:49.800Z,100840.75
2023-05-13T17:51:35.912Z,100855.34
2023-05-13T17:54:22.019Z,100842.56
2023-05-13T17:57:10.022Z,100850.06
2023-05-13T17:59:56.037Z,100856.56
2023-05-13T18:02:42.063Z,100843.75
2023-05-13T18:05:28.522Z,100866.41
2023-05-13T18:08:15.849Z,100858.91
2023-05-13T18:11:02.804Z,100865.88
2023-05-13T18:13:49.598Z,100865.28
2023-05-13T18:16:35.758Z,100867.00
2023-05-13T18:19:22.946Z,100874.28
2023-05-13T18:22:09.429Z,100868.34
2023-05-13T18:24:56.404Z,100874.81
2023-05-13T18:27:42.527Z,100857.22
2023-05-13T18:30:30.979Z,100880.56
2023-05-13T18:33:20.570Z,100847.94
2023-05-13T18:36:09.830Z,100877.16
2023-05-13T18:38:55.831Z,100875.03
2023-05-13T18:41:42.278Z,100878.72
2023-05-13T18:44:28.120Z,100882.22
2023-05-13T18:47:14.461Z,100868.34
2023-05-13T18:50:00.198Z,100853.91
2023-05-13T18:52:46.525Z,100881.06
2023-05-13T18:55:32.775Z,100845.09
2023-05-13T18:58:19.081Z,100849.75
2023-05-13T19:01:04.974Z,100894.91
2023-05-13T19:03:52.251Z,100870.59
2023-05-13T19:06:39.581Z,100873.72
2023-05-13T19:09:25.830Z,100893.09
2023-05-13T19:12:11.433Z,100894.75
2023-05-13T19:14:57.532Z,100881.16
2023-05-13T19:17:43.330Z,100887.81
2023-05-13T19:20:30.237Z,100889.16
2023-05-13T19:23:16.223Z,100886.69
2023-05-13T19:26:02.531Z,100887.69
2023-05-13T19:28:48.573Z,100877.97
2023-05-13T19:31:35.084Z,100893.22
2023-05-13T19:34:21.336Z,100874.41
2023-05-13T19:37:07.606Z,100865.16
2023-05-13T19:39:53.666Z,100885.28
2023-05-13T19:42:39.853Z,100884.31
2023-05-13T19:45:25.950Z,100899.59
2023-05-13T19:48:13.862Z,100900.09
2023-05-13T19:51:00.915Z,100911.16
2023-05-13T19:53:47.384Z,100919.59
2023-05-13T19:56:33.692Z,100906.44
2023-05-13T19:59:20.382Z,100914.56
2023-05-13T20:02:06.672Z,100910.00
2023-05-13T20:04:52.832Z,100897.34
2023-05-13T20:07:39.706Z,100904.31
2023-05-13T20:10:26.414Z,100909.03
2023-05-13T20:13:13.009Z,100882.38
2023-05-13T20:16:00.244Z,100908.06
2023-05-13T20:18:46.499Z,100911.28
2023-05-13T20:21:33.371Z,100888.56
2023-05-13T20:24:19.749Z,100892.94
2023-05-13T20:27:06.730Z,100903.50
2023-05-13T20:29:52.644Z,100902.03
2023-05-13T20:32:38.963Z,100878.00
2023-05-13T20:35:25.125Z,100894.53
2023-05-13T20:38:11.827Z,100878.16
2023-05-13T20:40:57.818Z,100880.28
2023-05-13T20:43:43.944Z,100891.00
2023-05-13T20:46:30.203Z,100905.47
2023-05-13T20:49:16.722Z,100914.41
2023-05-13T20:52:09.160Z,100909.38
2023-05-13T20:54:55.729Z,100895.41
2023-05-13T20:57:42.017Z,100912.59
2023-05-13T21:00:28.139Z,100892.16
2023-05-13T21:03:14.580Z,100915.69
2023-05-13T21:06:00.943Z,100913.44
2023-05-13T21:08:46.664Z,100921.72
2023-05-13T21:11:32.916Z,100922.19
2023-05-13T21:14:19.196Z,100921.06
2023-05-13T21:17:05.804Z,100920.88
2023-05-13T21:19:52.517Z,100916.66
2023-05-13T21:22:39.111Z,100912.91
2023-05-13T21:25:25.420Z,100913.41
2023-05-13T21:28:12.409Z,100917.94
2023-05-13T21:31:00.113Z,100921.03
2023-05-13T21:33:49.192Z,100911.41
2023-05-13T21:36:39.165Z,100916.91
2023-05-13T21:39:25.962Z,100908.28
2023-05-13T21:42:12.840Z,100909.44
2023-05-13T21:44:59.587Z,100902.75
2023-05-13T21:47:48.116Z,100911.16
2023-05-13T21:50:36.211Z,100913.25
2023-05-13T21:53:22.894Z,100910.97
2023-05-13T21:56:10.295Z,100909.00
2023-05-13T21:58:57.150Z,100902.78
2023-05-13T22:01:43.760Z,100906.16
2023-05-13T22:04:30.099Z,100912.63
2023-05-13T22:07:16.584Z,100896.00
2023-05-13T22:10:03.163Z,100896.16
2023-05-13T22:12:50.006Z,100900.53
2023-05-13T22:15:36.880Z,100898.06
2023-05-13T22:18:23.988Z,100895.88
2023-05-13T22:21:10.558Z,100911.91
2023-05-13T22:23:57.391Z,100905.09
2023-05-13T22:26:44.001Z,100909.97
2023-05-13T22:29:30.275Z,100906.84
2023-05-13T22:32:16.619Z,100894.63
2023-05-13T22:35:03.211Z,100883.34
2023-05-13T22:37:50.710Z,100907.66
2023-05-13T22:40:37.331Z,100908.50
2023-05-13T22:43:23.203Z,100901.25
2023-05-13T22:46:09.326Z,100911.13
2023-05-13T22:48:55.562Z,100886.84
2023-05-13T22:51:41.967Z,100915.75
2023-05-13T22:54:28.324Z,100911.50
2023-05-13T22:57:14.476Z,100906.22
2023-05-13T23:00:00.654Z,100920.28
2023-05-13T23:02:47.012Z,100912.47
2023-05-13T23:05:33.143Z,100904.00
2023-05-13T23:08:19.257Z,100903.63
2023-05-13T23:11:05.571Z,100900.06
2023-05-13T23:13:52.371Z,100902.41
2023-05-13T23:16:38.493Z,100901.41
2023-05-13T23:19:25.945Z,100905.28
2023-05-13T23:22:12.268Z,100903.75
2023-05-13T23:24:59.023Z,100906.00
2023-05-13T23:27:45.553Z,100901.72
2023-05-13T23:30:32.048Z,100901.81
2023-05-13T23:33:18.036Z,100898.06
2023-05-13T23:36:04.135Z,100885.22
2023-05-13T23:38:50.955Z,100872.25
2023-05-13T23:41:37.217Z,100891.50
2023-05-13T23:44:23.469Z,100888.06
2023-05-13T23:47:09.478Z,100871.94
2023-05-13T23:49:55.760Z,100887.50
2023-05-13T23:52:42.365Z,100891.06
2023-05-13T23:55:29.578Z,100882.91
2023-05-13T23:58:16.209Z,100876.69
